sensor_id;sensor_type;location;lat;lon;timestamp;noise_LAeq;noise_LA_min;noise_LA_max;noise_LA01;noise_LA95
67300;Laerm;57658;51.436;5.980;2023-09-30T00:00:03;49.93;40.84;58.04;;
67300;Laerm;57658;51.436;5.980;2023-09-30T00:00:18;56.67;38.61;69.34;;
67300;Laerm;57658;51.436;5.980;2023-09-30T00:00:28;36.91;31.89;42.18;;
67300;Laerm;57658;51.436;5.980;2023-09-30T00:00:38;31.61;30.06;33.64;;
67300;Laerm;57658;51.436;5.980;2023-09-30T00:00:48;31.22;30.14;32.26;;
67300;Laerm;57658;51.436;5.980;2023-09-30T00:00:59;31.47;30.11;34.04;;
67300;Laerm;57658;51.436;5.980;2023-09-30T00:01:09;31.53;30.20;33.03;;
67300;Laerm;57658;51.436;5.980;2023-09-30T00:01:20;33.43;31.51;36.47;;
67300;Laerm;57658;51.436;5.980;2023-09-30T00:01:32;33.61;31.84;35.84;;
67300;Laerm;57658;51.436;5.980;2023-09-30T00:01:42;34.83;32.09;38.55;;
67300;Laerm;57658;51.436;5.980;2023-09-30T00:01:54;36.47;34.57;39.92;;
67300;Laerm;57658;51.436;5.980;2023-09-30T00:02:04;33.20;30.88;36.58;;
67300;Laerm;57658;51.436;5.980;2023-09-30T00:02:14;65.80;31.82;77.61;;
67300;Laerm;57658;51.436;5.980;2023-09-30T00:02:25;72.69;66.71;78.05;;
67300;Laerm;57658;51.436;5.980;2023-09-30T00:02:35;63.08;53.18;76.07;;
67300;Laerm;57658;51.436;5.980;2023-09-30T00:02:45;58.43;52.94;60.05;;
67300;Laerm;57658;51.436;5.980;2023-09-30T00:02:56;58.57;52.84;60.37;;
67300;Laerm;57658;51.436;5.980;2023-09-30T00:03:06;58.91;53.74;61.33;;
67300;Laerm;57658;51.436;5.980;2023-09-30T00:03:16;76.44;56.99;82.03;;
67300;Laerm;57658;51.436;5.980;2023-09-30T00:03:27;79.97;75.68;87.01;;
67300;Laerm;57658;51.436;5.980;2023-09-30T00:03:37;76.93;59.30;85.50;;
67300;Laerm;57658;51.436;5.980;2023-09-30T00:03:48;55.29;45.36;63.19;;
67300;Laerm;57658;51.436;5.980;2023-09-30T00:03:58;46.73;43.77;54.10;;
67300;Laerm;57658;51.436;5.980;2023-09-30T00:04:08;44.51;41.98;47.40;;
67300;Laerm;57658;51.436;5.980;2023-09-30T00:04:19;43.94;41.40;46.28;;
67300;Laerm;57658;51.436;5.980;2023-09-30T00:04:29;49.31;39.94;60.88;;
67300;Laerm;57658;51.436;5.980;2023-09-30T00:04:40;57.25;40.09;65.18;;
67300;Laerm;57658;51.436;5.980;2023-09-30T00:04:50;41.48;34.09;47.09;;
67300;Laerm;57658;51.436;5.980;2023-09-30T00:05:00;35.17;32.46;37.65;;
67300;Laerm;57658;51.436;5.980;2023-09-30T00:05:11;33.09;31.65;34.82;;
67300;Laerm;57658;51.436;5.980;2023-09-30T00:05:21;32.20;30.96;33.41;;
67300;Laerm;57658;51.436;5.980;2023-09-30T00:05:31;31.97;30.70;33.02;;
67300;Laerm;57658;51.436;5.980;2023-09-30T00:05:42;32.30;31.19;33.73;;
67300;Laerm;57658;51.436;5.980;2023-09-30T00:05:52;34.30;32.14;37.14;;
67300;Laerm;57658;51.436;5.980;2023-09-30T00:06:02;35.20;31.96;38.47;;
67300;Laerm;57658;51.436;5.980;2023-09-30T00:06:13;66.62;31.28;77.19;;
67300;Laerm;57658;51.436;5.980;2023-09-30T00:06:24;72.67;65.36;77.47;;
67300;Laerm;57658;51.436;5.980;2023-09-30T00:06:34;59.65;52.62;75.04;;
67300;Laerm;57658;51.436;5.980;2023-09-30T00:06:44;58.04;52.51;60.09;;
67300;Laerm;57658;51.436;5.980;2023-09-30T00:06:54;58.21;52.70;60.07;;
67300;Laerm;57658;51.436;5.980;2023-09-30T00:07:05;59.95;53.87;66.39;;
67300;Laerm;57658;51.436;5.980;2023-09-30T00:07:15;81.89;65.97;89.57;;
67300;Laerm;57658;51.436;5.980;2023-09-30T00:07:25;80.11;76.50;84.31;;
67300;Laerm;57658;51.436;5.980;2023-09-30T00:07:36;72.48;47.52;87.69;;
67300;Laerm;57658;51.436;5.980;2023-09-30T00:07:47;53.80;47.98;57.33;;
67300;Laerm;57658;51.436;5.980;2023-09-30T00:07:57;45.25;40.36;51.70;;
67300;Laerm;57658;51.436;5.980;2023-09-30T00:08:07;39.20;34.92;42.93;;
67300;Laerm;57658;51.436;5.980;2023-09-30T00:08:18;34.76;33.08;37.22;;
67300;Laerm;57658;51.436;5.980;2023-09-30T00:08:28;34.20;31.96;36.96;;
67300;Laerm;57658;51.436;5.980;2023-09-30T00:08:38;35.63;32.99;37.59;;
67300;Laerm;57658;51.436;5.980;2023-09-30T00:08:49;34.09;31.79;36.20;;
67300;Laerm;57658;51.436;5.980;2023-09-30T00:08:59;34.25;32.18;37.04;;
67300;Laerm;57658;51.436;5.980;2023-09-30T00:09:10;32.53;30.83;34.92;;
67300;Laerm;57658;51.436;5.980;2023-09-30T00:09:21;31.67;30.00;37.53;;
67300;Laerm;57658;51.436;5.980;2023-09-30T00:09:32;31.39;30.23;33.17;;
67300;Laerm;57658;51.436;5.980;2023-09-30T00:09:42;31.09;29.36;33.14;;
67300;Laerm;57658;51.436;5.980;2023-09-30T00:09:52;31.07;29.76;32.15;;
67300;Laerm;57658;51.436;5.980;2023-09-30T00:10:03;31.03;30.01;32.26;;
67300;Laerm;57658;51.436;5.980;2023-09-30T00:10:13;31.16;30.00;32.43;;
67300;Laerm;57658;51.436;5.980;2023-09-30T00:10:25;31.11;29.84;32.25;;
67300;Laerm;57658;51.436;5.980;2023-09-30T00:10:35;31.18;29.64;33.43;;
67300;Laerm;57658;51.436;5.980;2023-09-30T00:10:45;30.98;29.85;31.99;;
67300;Laerm;57658;51.436;5.980;2023-09-30T00:10:56;30.96;29.69;32.19;;
67300;Laerm;57658;51.436;5.980;2023-09-30T00:11:07;31.40;30.29;32.86;;
67300;Laerm;57658;51.436;5.980;2023-09-30T00:11:17;31.41;30.39;32.49;;
67300;Laerm;57658;51.436;5.980;2023-09-30T00:11:27;31.48;30.11;33.00;;
67300;Laerm;57658;51.436;5.980;2023-09-30T00:11:37;31.63;30.02;32.91;;
67300;Laerm;57658;51.436;5.980;2023-09-30T00:11:48;31.48;30.38;32.85;;
67300;Laerm;57658;51.436;5.980;2023-09-30T00:11:58;31.47;30.28;32.58;;
67300;Laerm;57658;51.436;5.980;2023-09-30T00:12:09;31.38;30.29;34.07;;
67300;Laerm;57658;51.436;5.980;2023-09-30T00:12:20;31.64;30.41;33.04;;
67300;Laerm;57658;51.436;5.980;2023-09-30T00:12:30;31.50;30.33;32.64;;
67300;Laerm;57658;51.436;5.980;2023-09-30T00:12:41;31.89;30.32;32.91;;
67300;Laerm;57658;51.436;5.980;2023-09-30T00:12:51;31.37;29.92;32.98;;
67300;Laerm;57658;51.436;5.980;2023-09-30T00:13:01;31.34;30.04;32.51;;
67300;Laerm;57658;51.436;5.980;2023-09-30T00:13:12;32.05;30.43;34.54;;
67300;Laerm;57658;51.436;5.980;2023-09-30T00:13:22;31.87;30.38;33.13;;
67300;Laerm;57658;51.436;5.980;2023-09-30T00:13:34;31.83;30.61;33.16;;
67300;Laerm;57658;51.436;5.980;2023-09-30T00:13:44;31.51;30.39;32.70;;
67300;Laerm;57658;51.436;5.980;2023-09-30T00:13:55;31.54;30.25;32.97;;
67300;Laerm;57658;51.436;5.980;2023-09-30T00:14:06;31.32;30.36;32.64;;
67300;Laerm;57658;51.436;5.980;2023-09-30T00:14:16;31.20;30.10;32.65;;
67300;Laerm;57658;51.436;5.980;2023-09-30T00:14:27;31.37;29.97;32.60;;
67300;Laerm;57658;51.436;5.980;2023-09-30T00:14:38;31.36;30.17;32.54;;
67300;Laerm;57658;51.436;5.980;2023-09-30T00:14:49;31.38;30.13;32.52;;
67300;Laerm;57658;51.436;5.980;2023-09-30T00:14:59;31.30;30.22;33.09;;
67300;Laerm;57658;51.436;5.980;2023-09-30T00:15:09;31.90;30.38;33.88;;
67300;Laerm;57658;51.436;5.980;2023-09-30T00:15:20;32.43;30.87;34.20;;
67300;Laerm;57658;51.436;5.980;2023-09-30T00:15:30;32.07;30.83;33.62;;
67300;Laerm;57658;51.436;5.980;2023-09-30T00:15:40;33.16;30.22;36.09;;
67300;Laerm;57658;51.436;5.980;2023-09-30T00:15:51;35.63;33.25;37.93;;
67300;Laerm;57658;51.436;5.980;2023-09-30T00:16:01;34.97;31.50;38.08;;
67300;Laerm;57658;51.436;5.980;2023-09-30T00:16:11;38.85;32.46;45.40;;
67300;Laerm;57658;51.436;5.980;2023-09-30T00:16:22;41.28;38.42;44.21;;
67300;Laerm;57658;51.436;5.980;2023-09-30T00:16:32;46.16;38.98;52.18;;
67300;Laerm;57658;51.436;5.980;2023-09-30T00:16:43;59.13;49.64;64.32;;
67300;Laerm;57658;51.436;5.980;2023-09-30T00:16:54;46.26;35.28;53.37;;
67300;Laerm;57658;51.436;5.980;2023-09-30T00:17:04;32.87;30.67;37.27;;
67300;Laerm;57658;51.436;5.980;2023-09-30T00:17:14;31.14;30.10;32.22;;
67300;Laerm;57658;51.436;5.980;2023-09-30T00:17:25;31.48;30.23;32.71;;
67300;Laerm;57658;51.436;5.980;2023-09-30T00:17:35;31.82;30.40;41.28;;
67300;Laerm;57658;51.436;5.980;2023-09-30T00:17:45;31.71;30.33;33.88;;
67300;Laerm;57658;51.436;5.980;2023-09-30T00:17:56;31.42;30.50;32.46;;
67300;Laerm;57658;51.436;5.980;2023-09-30T00:18:06;31.53;30.31;33.40;;
67300;Laerm;57658;51.436;5.980;2023-09-30T00:18:16;31.54;30.02;32.78;;
67300;Laerm;57658;51.436;5.980;2023-09-30T00:18:26;31.45;30.32;32.43;;
67300;Laerm;57658;51.436;5.980;2023-09-30T00:18:37;31.67;30.27;36.00;;
67300;Laerm;57658;51.436;5.980;2023-09-30T00:18:47;31.76;30.71;32.89;;
67300;Laerm;57658;51.436;5.980;2023-09-30T00:18:58;32.21;30.99;33.77;;
67300;Laerm;57658;51.436;5.980;2023-09-30T00:19:08;32.04;30.60;33.49;;
67300;Laerm;57658;51.436;5.980;2023-09-30T00:19:20;31.91;30.74;33.36;;
67300;Laerm;57658;51.436;5.980;2023-09-30T00:19:32;31.59;30.26;32.95;;
67300;Laerm;57658;51.436;5.980;2023-09-30T00:19:43;32.59;30.84;34.63;;
67300;Laerm;57658;51.436;5.980;2023-09-30T00:19:54;31.89;30.55;32.98;;
67300;Laerm;57658;51.436;5.980;2023-09-30T00:20:05;31.57;30.33;32.69;;
67300;Laerm;57658;51.436;5.980;2023-09-30T00:20:15;31.36;30.54;32.34;;
67300;Laerm;57658;51.436;5.980;2023-09-30T00:20:26;31.52;30.25;32.64;;
67300;Laerm;57658;51.436;5.980;2023-09-30T00:20:37;31.82;30.61;33.06;;
67300;Laerm;57658;51.436;5.980;2023-09-30T00:20:47;32.31;30.86;33.48;;
67300;Laerm;57658;51.436;5.980;2023-09-30T00:20:58;32.64;30.94;34.79;;
67300;Laerm;57658;51.436;5.980;2023-09-30T00:21:08;32.48;31.09;35.26;;
67300;Laerm;57658;51.436;5.980;2023-09-30T00:21:18;31.89;30.64;32.89;;
67300;Laerm;57658;51.436;5.980;2023-09-30T00:21:29;31.61;30.50;33.12;;
67300;Laerm;57658;51.436;5.980;2023-09-30T00:21:39;31.69;30.51;32.67;;
67300;Laerm;57658;51.436;5.980;2023-09-30T00:21:50;31.65;30.50;32.37;;
67300;Laerm;57658;51.436;5.980;2023-09-30T00:22:00;31.71;30.40;34.18;;
67300;Laerm;57658;51.436;5.980;2023-09-30T00:22:10;31.99;30.76;33.82;;
67300;Laerm;57658;51.436;5.980;2023-09-30T00:22:21;31.79;30.41;33.27;;
67300;Laerm;57658;51.436;5.980;2023-09-30T00:22:31;31.95;30.61;33.44;;
67300;Laerm;57658;51.436;5.980;2023-09-30T00:22:41;31.84;30.52;33.17;;
67300;Laerm;57658;51.436;5.980;2023-09-30T00:22:52;31.55;30.39;32.94;;
67300;Laerm;57658;51.436;5.980;2023-09-30T00:23:02;31.48;30.07;36.41;;
67300;Laerm;57658;51.436;5.980;2023-09-30T00:23:12;31.54;30.45;32.55;;
67300;Laerm;57658;51.436;5.980;2023-09-30T00:23:23;31.41;30.35;32.30;;
67300;Laerm;57658;51.436;5.980;2023-09-30T00:23:33;31.74;30.48;36.66;;
67300;Laerm;57658;51.436;5.980;2023-09-30T00:23:44;31.98;30.51;35.76;;
67300;Laerm;57658;51.436;5.980;2023-09-30T00:23:54;32.32;30.85;35.47;;
67300;Laerm;57658;51.436;5.980;2023-09-30T00:24:04;35.32;30.79;46.73;;
67300;Laerm;57658;51.436;5.980;2023-09-30T00:24:15;40.47;31.32;54.82;;
67300;Laerm;57658;51.436;5.980;2023-09-30T00:24:25;47.67;31.51;65.90;;
67300;Laerm;57658;51.436;5.980;2023-09-30T00:24:36;41.10;31.24;51.94;;
67300;Laerm;57658;51.436;5.980;2023-09-30T00:24:46;33.61;31.02;40.45;;
67300;Laerm;57658;51.436;5.980;2023-09-30T00:24:57;33.20;30.69;39.40;;
67300;Laerm;57658;51.436;5.980;2023-09-30T00:25:07;32.15;30.66;35.55;;
67300;Laerm;57658;51.436;5.980;2023-09-30T00:25:17;31.81;30.50;33.53;;
67300;Laerm;57658;51.436;5.980;2023-09-30T00:25:28;31.78;30.62;35.20;;
67300;Laerm;57658;51.436;5.980;2023-09-30T00:25:38;31.82;30.77;35.32;;
67300;Laerm;57658;51.436;5.980;2023-09-30T00:25:49;31.97;30.85;33.84;;
67300;Laerm;57658;51.436;5.980;2023-09-30T00:26:00;32.97;31.49;34.58;;
67300;Laerm;57658;51.436;5.980;2023-09-30T00:26:10;32.41;30.83;34.30;;
67300;Laerm;57658;51.436;5.980;2023-09-30T00:26:21;31.98;30.18;33.62;;
67300;Laerm;57658;51.436;5.980;2023-09-30T00:26:32;32.97;31.28;35.17;;
67300;Laerm;57658;51.436;5.980;2023-09-30T00:26:42;42.58;33.89;52.99;;
67300;Laerm;57658;51.436;5.980;2023-09-30T00:26:52;64.27;47.86;71.50;;
67300;Laerm;57658;51.436;5.980;2023-09-30T00:27:02;54.20;43.54;67.42;;
67300;Laerm;57658;51.436;5.980;2023-09-30T00:27:13;42.48;38.85;48.90;;
67300;Laerm;57658;51.436;5.980;2023-09-30T00:27:23;39.37;34.85;43.02;;
67300;Laerm;57658;51.436;5.980;2023-09-30T00:27:33;34.47;31.20;36.69;;
67300;Laerm;57658;51.436;5.980;2023-09-30T00:27:44;33.71;32.45;34.82;;
67300;Laerm;57658;51.436;5.980;2023-09-30T00:27:54;33.41;31.98;35.56;;
67300;Laerm;57658;51.436;5.980;2023-09-30T00:28:04;32.56;30.88;34.29;;
67300;Laerm;57658;51.436;5.980;2023-09-30T00:28:15;32.44;31.05;33.46;;
67300;Laerm;57658;51.436;5.980;2023-09-30T00:28:25;32.26;31.19;33.77;;
67300;Laerm;57658;51.436;5.980;2023-09-30T00:28:35;32.37;31.31;33.46;;
67300;Laerm;57658;51.436;5.980;2023-09-30T00:28:45;32.12;30.88;33.75;;
67300;Laerm;57658;51.436;5.980;2023-09-30T00:28:56;32.42;31.17;34.17;;
67300;Laerm;57658;51.436;5.980;2023-09-30T00:29:06;32.04;30.89;33.25;;
67300;Laerm;57658;51.436;5.980;2023-09-30T00:29:16;32.20;30.58;33.43;;
67300;Laerm;57658;51.436;5.980;2023-09-30T00:29:27;32.11;30.91;34.24;;
67300;Laerm;57658;51.436;5.980;2023-09-30T00:29:38;31.97;30.61;32.98;;
67300;Laerm;57658;51.436;5.980;2023-09-30T00:29:48;31.93;30.91;33.06;;
67300;Laerm;57658;51.436;5.980;2023-09-30T00:29:58;32.37;31.23;34.05;;
67300;Laerm;57658;51.436;5.980;2023-09-30T00:30:09;32.67;31.28;34.14;;
67300;Laerm;57658;51.436;5.980;2023-09-30T00:30:19;32.41;30.87;33.38;;
67300;Laerm;57658;51.436;5.980;2023-09-30T00:30:31;32.40;31.17;33.66;;
67300;Laerm;57658;51.436;5.980;2023-09-30T00:30:41;32.54;31.43;33.46;;
67300;Laerm;57658;51.436;5.980;2023-09-30T00:30:51;32.66;31.42;34.10;;
67300;Laerm;57658;51.436;5.980;2023-09-30T00:31:06;33.49;32.29;35.87;;
67300;Laerm;57658;51.436;5.980;2023-09-30T00:31:18;47.16;31.94;65.27;;
67300;Laerm;57658;51.436;5.980;2023-09-30T00:31:29;33.14;31.96;34.40;;
67300;Laerm;57658;51.436;5.980;2023-09-30T00:31:39;33.18;32.09;34.13;;
67300;Laerm;57658;51.436;5.980;2023-09-30T00:31:50;33.31;32.10;34.36;;
67300;Laerm;57658;51.436;5.980;2023-09-30T00:32:01;32.83;31.76;34.05;;
67300;Laerm;57658;51.436;5.980;2023-09-30T00:32:11;32.58;31.49;33.66;;
67300;Laerm;57658;51.436;5.980;2023-09-30T00:32:22;32.59;31.41;33.78;;
67300;Laerm;57658;51.436;5.980;2023-09-30T00:32:32;33.18;32.03;34.60;;
67300;Laerm;57658;51.436;5.980;2023-09-30T00:32:43;33.22;31.66;34.41;;
67300;Laerm;57658;51.436;5.980;2023-09-30T00:32:53;33.51;32.44;34.57;;
67300;Laerm;57658;51.436;5.980;2023-09-30T00:33:04;33.80;32.73;35.02;;
67300;Laerm;57658;51.436;5.980;2023-09-30T00:33:14;33.36;32.27;34.88;;
67300;Laerm;57658;51.436;5.980;2023-09-30T00:33:24;33.37;31.84;34.32;;
67300;Laerm;57658;51.436;5.980;2023-09-30T00:33:35;33.20;32.08;34.39;;
67300;Laerm;57658;51.436;5.980;2023-09-30T00:33:45;33.32;32.13;34.83;;
67300;Laerm;57658;51.436;5.980;2023-09-30T00:33:56;33.15;31.90;34.17;;
67300;Laerm;57658;51.436;5.980;2023-09-30T00:34:06;33.08;31.50;34.37;;
67300;Laerm;57658;51.436;5.980;2023-09-30T00:34:17;32.83;31.67;34.41;;
67300;Laerm;57658;51.436;5.980;2023-09-30T00:34:27;32.50;31.31;33.55;;
67300;Laerm;57658;51.436;5.980;2023-09-30T00:34:37;32.47;31.41;33.73;;
67300;Laerm;57658;51.436;5.980;2023-09-30T00:34:48;32.35;31.18;33.38;;
67300;Laerm;57658;51.436;5.980;2023-09-30T00:35:00;32.28;31.17;33.29;;
67300;Laerm;57658;51.436;5.980;2023-09-30T00:35:11;32.07;30.87;33.51;;
67300;Laerm;57658;51.436;5.980;2023-09-30T00:35:21;32.48;31.22;33.66;;
67300;Laerm;57658;51.436;5.980;2023-09-30T00:35:32;32.55;31.07;33.91;;
67300;Laerm;57658;51.436;5.980;2023-09-30T00:35:42;32.01;30.91;33.24;;
67300;Laerm;57658;51.436;5.980;2023-09-30T00:35:53;32.20;30.67;33.36;;
67300;Laerm;57658;51.436;5.980;2023-09-30T00:36:09;32.32;30.98;33.42;;
67300;Laerm;57658;51.436;5.980;2023-09-30T00:36:20;32.11;30.78;33.27;;
67300;Laerm;57658;51.436;5.980;2023-09-30T00:36:30;32.54;31.56;33.77;;
67300;Laerm;57658;51.436;5.980;2023-09-30T00:36:41;32.17;31.07;33.37;;
67300;Laerm;57658;51.436;5.980;2023-09-30T00:36:51;32.11;30.96;33.34;;
67300;Laerm;57658;51.436;5.980;2023-09-30T00:37:02;31.97;29.99;33.02;;
67300;Laerm;57658;51.436;5.980;2023-09-30T00:37:12;31.88;30.75;32.98;;
67300;Laerm;57658;51.436;5.980;2023-09-30T00:37:23;32.03;30.64;33.33;;
67300;Laerm;57658;51.436;5.980;2023-09-30T00:37:33;31.91;30.75;33.09;;
67300;Laerm;57658;51.436;5.980;2023-09-30T00:37:44;31.92;30.71;33.19;;
67300;Laerm;57658;51.436;5.980;2023-09-30T00:37:54;31.91;30.85;32.74;;
67300;Laerm;57658;51.436;5.980;2023-09-30T00:38:04;32.23;31.10;33.22;;
67300;Laerm;57658;51.436;5.980;2023-09-30T00:38:14;32.49;31.30;33.66;;
67300;Laerm;57658;51.436;5.980;2023-09-30T00:38:25;32.55;31.31;34.21;;
67300;Laerm;57658;51.436;5.980;2023-09-30T00:38:35;32.87;31.66;34.47;;
67300;Laerm;57658;51.436;5.980;2023-09-30T00:38:46;33.24;31.70;34.41;;
67300;Laerm;57658;51.436;5.980;2023-09-30T00:38:56;34.02;32.00;37.11;;
67300;Laerm;57658;51.436;5.980;2023-09-30T00:39:07;34.42;31.53;38.42;;
67300;Laerm;57658;51.436;5.980;2023-09-30T00:39:17;32.76;31.37;34.98;;
67300;Laerm;57658;51.436;5.980;2023-09-30T00:39:27;32.60;31.21;35.41;;
67300;Laerm;57658;51.436;5.980;2023-09-30T00:39:40;32.77;31.34;33.89;;
67300;Laerm;57658;51.436;5.980;2023-09-30T00:39:51;33.79;31.48;50.79;;
67300;Laerm;57658;51.436;5.980;2023-09-30T00:40:01;32.33;31.23;33.45;;
67300;Laerm;57658;51.436;5.980;2023-09-30T00:40:12;32.55;30.92;40.21;;
67300;Laerm;57658;51.436;5.980;2023-09-30T00:40:23;32.90;31.49;34.62;;
67300;Laerm;57658;51.436;5.980;2023-09-30T00:40:34;33.17;31.76;34.64;;
67300;Laerm;57658;51.436;5.980;2023-09-30T00:40:48;33.00;31.66;34.45;;
67300;Laerm;57658;51.436;5.980;2023-09-30T00:40:59;32.66;31.43;34.00;;
67300;Laerm;57658;51.436;5.980;2023-09-30T00:41:09;32.94;31.75;34.15;;
67300;Laerm;57658;51.436;5.980;2023-09-30T00:41:19;33.26;31.42;35.06;;
67300;Laerm;57658;51.436;5.980;2023-09-30T00:41:30;34.01;32.22;36.11;;
67300;Laerm;57658;51.436;5.980;2023-09-30T00:41:40;34.14;32.40;35.48;;
67300;Laerm;57658;51.436;5.980;2023-09-30T00:41:50;33.00;31.59;34.67;;
67300;Laerm;57658;51.436;5.980;2023-09-30T00:42:00;32.39;31.09;33.64;;
67300;Laerm;57658;51.436;5.980;2023-09-30T00:42:11;32.79;31.72;33.99;;
67300;Laerm;57658;51.436;5.980;2023-09-30T00:42:21;32.86;31.73;33.96;;
67300;Laerm;57658;51.436;5.980;2023-09-30T00:42:31;32.13;30.82;33.43;;
67300;Laerm;57658;51.436;5.980;2023-09-30T00:42:42;32.38;30.92;33.66;;
67300;Laerm;57658;51.436;5.980;2023-09-30T00:42:52;32.58;31.43;33.56;;
67300;Laerm;57658;51.436;5.980;2023-09-30T00:43:02;32.43;31.42;33.57;;
67300;Laerm;57658;51.436;5.980;2023-09-30T00:43:19;32.61;31.51;33.72;;
67300;Laerm;57658;51.436;5.980;2023-09-30T00:43:29;32.52;31.15;33.74;;
67300;Laerm;57658;51.436;5.980;2023-09-30T00:43:40;32.66;31.58;33.88;;
67300;Laerm;57658;51.436;5.980;2023-09-30T00:43:51;32.35;31.18;33.48;;
67300;Laerm;57658;51.436;5.980;2023-09-30T00:44:02;32.30;31.42;33.38;;
67300;Laerm;57658;51.436;5.980;2023-09-30T00:44:12;32.32;30.88;33.60;;
67300;Laerm;57658;51.436;5.980;2023-09-30T00:44:22;32.46;31.22;33.64;;
67300;Laerm;57658;51.436;5.980;2023-09-30T00:44:33;32.64;31.29;33.79;;
67300;Laerm;57658;51.436;5.980;2023-09-30T00:44:43;32.74;31.56;33.98;;
67300;Laerm;57658;51.436;5.980;2023-09-30T00:44:53;32.64;31.41;33.59;;
67300;Laerm;57658;51.436;5.980;2023-09-30T00:45:04;32.85;31.65;33.89;;
67300;Laerm;57658;51.436;5.980;2023-09-30T00:45:15;32.97;31.74;34.03;;
67300;Laerm;57658;51.436;5.980;2023-09-30T00:45:25;33.11;31.87;34.65;;
67300;Laerm;57658;51.436;5.980;2023-09-30T00:45:35;32.53;31.17;34.31;;
67300;Laerm;57658;51.436;5.980;2023-09-30T00:45:48;32.62;31.17;33.67;;
67300;Laerm;57658;51.436;5.980;2023-09-30T00:46:03;32.51;31.48;33.69;;
67300;Laerm;57658;51.436;5.980;2023-09-30T00:46:23;33.41;31.29;42.64;;
67300;Laerm;57658;51.436;5.980;2023-09-30T00:46:36;32.91;30.79;41.81;;
67300;Laerm;57658;51.436;5.980;2023-09-30T00:46:47;32.23;30.81;35.16;;
67300;Laerm;57658;51.436;5.980;2023-09-30T00:46:58;31.88;30.72;32.71;;
67300;Laerm;57658;51.436;5.980;2023-09-30T00:47:09;32.09;30.81;33.66;;
67300;Laerm;57658;51.436;5.980;2023-09-30T00:47:20;32.50;31.30;33.53;;
67300;Laerm;57658;51.436;5.980;2023-09-30T00:47:31;32.12;30.99;33.30;;
67300;Laerm;57658;51.436;5.980;2023-09-30T00:47:43;32.14;30.81;34.18;;
67300;Laerm;57658;51.436;5.980;2023-09-30T00:47:53;31.73;30.47;32.74;;
67300;Laerm;57658;51.436;5.980;2023-09-30T00:48:04;32.06;30.94;33.13;;
67300;Laerm;57658;51.436;5.980;2023-09-30T00:48:14;32.25;30.61;34.42;;
67300;Laerm;57658;51.436;5.980;2023-09-30T00:48:24;32.64;31.35;33.96;;
67300;Laerm;57658;51.436;5.980;2023-09-30T00:48:35;32.57;31.12;34.13;;
67300;Laerm;57658;51.436;5.980;2023-09-30T00:48:45;32.79;31.32;34.19;;
67300;Laerm;57658;51.436;5.980;2023-09-30T00:48:57;32.91;31.56;34.25;;
67300;Laerm;57658;51.436;5.980;2023-09-30T00:49:08;32.91;31.70;34.44;;
67300;Laerm;57658;51.436;5.980;2023-09-30T00:49:20;70.12;32.25;77.41;;
67300;Laerm;57658;51.436;5.980;2023-09-30T00:49:31;71.52;55.42;78.05;;
67300;Laerm;57658;51.436;5.980;2023-09-30T00:49:42;58.09;55.45;59.36;;
67300;Laerm;57658;51.436;5.980;2023-09-30T00:49:53;58.62;54.97;60.00;;
67300;Laerm;57658;51.436;5.980;2023-09-30T00:50:04;67.54;56.15;80.07;;
67300;Laerm;57658;51.436;5.980;2023-09-30T00:50:18;86.02;80.05;96.41;;
67300;Laerm;57658;51.436;5.980;2023-09-30T00:50:29;86.09;69.26;95.16;;
67300;Laerm;57658;51.436;5.980;2023-09-30T00:50:39;62.56;50.81;68.89;;
67300;Laerm;57658;51.436;5.980;2023-09-30T00:50:50;47.86;40.96;53.09;;
67300;Laerm;57658;51.436;5.980;2023-09-30T00:51:00;39.88;35.13;44.32;;
67300;Laerm;57658;51.436;5.980;2023-09-30T00:51:11;34.73;31.56;37.85;;
67300;Laerm;57658;51.436;5.980;2023-09-30T00:51:22;31.78;29.78;36.51;;
67300;Laerm;57658;51.436;5.980;2023-09-30T00:51:32;31.32;30.19;32.56;;
67300;Laerm;57658;51.436;5.980;2023-09-30T00:51:44;31.27;30.01;32.24;;
67300;Laerm;57658;51.436;5.980;2023-09-30T00:51:54;31.52;30.55;32.52;;
67300;Laerm;57658;51.436;5.980;2023-09-30T00:52:05;31.45;30.57;32.57;;
67300;Laerm;57658;51.436;5.980;2023-09-30T00:52:15;31.31;30.08;32.55;;
67300;Laerm;57658;51.436;5.980;2023-09-30T00:52:26;31.50;30.38;32.47;;
67300;Laerm;57658;51.436;5.980;2023-09-30T00:52:37;31.35;30.19;32.52;;
67300;Laerm;57658;51.436;5.980;2023-09-30T00:52:48;31.63;30.18;33.14;;
67300;Laerm;57658;51.436;5.980;2023-09-30T00:52:59;31.90;30.70;32.94;;
67300;Laerm;57658;51.436;5.980;2023-09-30T00:53:09;31.86;30.78;33.08;;
67300;Laerm;57658;51.436;5.980;2023-09-30T00:53:20;31.52;30.39;32.68;;
67300;Laerm;57658;51.436;5.980;2023-09-30T00:53:30;31.48;30.34;32.39;;
67300;Laerm;57658;51.436;5.980;2023-09-30T00:53:41;31.76;30.49;33.10;;
67300;Laerm;57658;51.436;5.980;2023-09-30T00:53:52;32.56;30.95;34.11;;
67300;Laerm;57658;51.436;5.980;2023-09-30T00:54:02;32.70;31.16;34.61;;
67300;Laerm;57658;51.436;5.980;2023-09-30T00:54:13;32.30;30.84;34.50;;
67300;Laerm;57658;51.436;5.980;2023-09-30T00:54:23;32.03;30.88;33.13;;
67300;Laerm;57658;51.436;5.980;2023-09-30T00:54:35;31.92;30.98;33.31;;
67300;Laerm;57658;51.436;5.980;2023-09-30T00:54:47;31.90;30.67;32.99;;
67300;Laerm;57658;51.436;5.980;2023-09-30T00:54:58;31.85;30.75;32.85;;
67300;Laerm;57658;51.436;5.980;2023-09-30T00:55:09;33.21;30.72;36.05;;
67300;Laerm;57658;51.436;5.980;2023-09-30T00:55:20;40.42;35.03;44.39;;
67300;Laerm;57658;51.436;5.980;2023-09-30T00:55:31;41.29;34.75;52.70;;
67300;Laerm;57658;51.436;5.980;2023-09-30T00:55:42;36.65;32.18;41.71;;
67300;Laerm;57658;51.436;5.980;2023-09-30T00:55:53;35.45;30.71;46.03;;
67300;Laerm;57658;51.436;5.980;2023-09-30T00:56:04;42.70;31.06;59.35;;
67300;Laerm;57658;51.436;5.980;2023-09-30T00:56:15;44.70;33.24;58.07;;
67300;Laerm;57658;51.436;5.980;2023-09-30T00:56:28;46.93;36.02;61.94;;
67300;Laerm;57658;51.436;5.980;2023-09-30T00:56:48;39.43;36.16;46.53;;
67300;Laerm;57658;51.436;5.980;2023-09-30T00:57:00;42.40;36.85;46.23;;
67300;Laerm;57658;51.436;5.980;2023-09-30T00:57:11;46.96;42.64;50.25;;
67300;Laerm;57658;51.436;5.980;2023-09-30T00:57:23;46.43;42.84;49.97;;
67300;Laerm;57658;51.436;5.980;2023-09-30T00:57:33;41.83;37.13;52.08;;
67300;Laerm;57658;51.436;5.980;2023-09-30T00:57:44;35.92;32.40;40.10;;
67300;Laerm;57658;51.436;5.980;2023-09-30T00:57:55;33.66;31.80;39.24;;
67300;Laerm;57658;51.436;5.980;2023-09-30T00:58:06;35.35;32.34;37.68;;
67300;Laerm;57658;51.436;5.980;2023-09-30T00:58:16;39.17;35.30;45.49;;
67300;Laerm;57658;51.436;5.980;2023-09-30T00:58:26;54.33;43.41;62.45;;
67300;Laerm;57658;51.436;5.980;2023-09-30T00:58:39;52.90;37.53;60.76;;
67300;Laerm;57658;51.436;5.980;2023-09-30T00:58:49;44.82;36.58;60.95;;
67300;Laerm;57658;51.436;5.980;2023-09-30T00:59:01;45.27;35.11;60.99;;
67300;Laerm;57658;51.436;5.980;2023-09-30T00:59:14;44.09;35.88;57.78;;
67300;Laerm;57658;51.436;5.980;2023-09-30T00:59:24;44.60;35.78;57.72;;
67300;Laerm;57658;51.436;5.980;2023-09-30T00:59:36;53.37;37.35;70.55;;
67300;Laerm;57658;51.436;5.980;2023-09-30T00:59:47;41.72;38.47;54.05;;
67300;Laerm;57658;51.436;5.980;2023-09-30T00:59:58;45.59;40.29;50.09;;
67300;Laerm;57658;51.436;5.980;2023-09-30T01:00:08;60.38;44.63;67.94;;